Aérodrome :
LOGIN :

S'inscrire | Disclaimer

   EN    FR    IT 

 










Légende :    VFR   VFR Marginal   IFR   IFR Intensif   IFR Très Intensif
Visi : 
Plafond : 
>= 8 km
>= 3000ft
5 à 8 km
1000 à 3000 ft
1500m à 5 km
500 à 1000 ft
800 à 1500m
200 à 500 ft
< 800m
< 200 ft
Symboles :   Orages  Brouillard  Fortes neiges  Fortes précipitations  Vent > 20 kt
SIGMETs :   Divers  Orages  Givrage  Turbulence  Onde Orograph.  Cendres Volcan.







- Altitude de l'aérodrome : 325 ft
- Code IATA : BES
- Voir les cartes d'approche


LFRB - Brest

DERNIER METAR :
  • 230700Z AUTO 28008KT 240V330 9999 BKN024 BKN029 OVC035 10/08 Q1001 TEMPO 4000 SHRA BKN013CB BECMG 24018KT

METARs EXPIRÉS :
  • 230630Z AUTO 29007KT 270V340 9999 BKN020 OVC025 10/09 Q1000 TEMPO 4000 SHRA BKN013CB BECMG 24018KT
  • 230600Z AUTO 29009KT 260V320 6000 -RA BKN009/// BKN014/// OVC021/// ///TCU 10/09 Q0999 TEMPO 4000 SHRA BKN013CB
  • 230530Z AUTO 28009KT 9999 BKN009/// OVC016/// ///TCU 11/10 Q0998 TEMPO 4000 SHRA BKN013CB
  • 230500Z AUTO 24016KT 210V290 9999 3800 BKN013/// BKN019/// BKN025/// ///TCU 13/11 Q0997 TEMPO 4000 SHRA SCT012CB BECMG 28015G30KT
  • 230430Z AUTO 24017KT 9999 BKN013/// OVC030/// ///TCU 13/11 Q0996 TEMPO 4000 SHRA SCT012CB BECMG 28015G30KT

TAF TAF LFRB
Valide du 23 à 06h jusqu'au 24 à 12h UTC


230500Z 2306/2412 24018KT 9999 BKN013
TEMPO 2306/2308 4000 SHRA BKN013CB
BECMG 2316/2319 18025G35KT 3000 RA BR OVC008 FEW012CB
BECMG 2400/2402 30012KT 9999 NSW SCT020
TEMPO 2402/2404 30020G30KT SHRA BKN012CB
BECMG 2406/2408 20008KT BKN014
BECMG 2410/2412 -RA OVC008
ATIS : +33 2 98 32 02 71
Pas de NOTAMs connus pour ce terrain.



MET'MAP, la Météo Aéronautique d'un coup d'oeil ! - Copyright ORBIFLY Décembre 2007 - Disclaimer

ORBIFLY MET'MAP TEAM :

Programmation & Développement : Alexandra Zaïnal
Conception & Développement : Baudouin d'Aumeries
Co-Programmation & Développement : Marc-Olivier Méhu
Soutien technique & logistique : Manuel Goepfert

Contact : metmap@orbifly.com




SOURCES & CREDITS :

   NOAA